sensor_id;sensor_type;location;lat;lon;timestamp;P1;durP1;ratioP1;P2;durP2;ratioP2
24617;SDS011;12762;51.730;5.356;2023-04-01T00:00:09;6.50;;;3.53;;
24617;SDS011;12762;51.730;5.356;2023-04-01T00:02:38;6.37;;;4.17;;
24617;SDS011;12762;51.730;5.356;2023-04-01T00:05:06;7.23;;;3.90;;
24617;SDS011;12762;51.730;5.356;2023-04-01T00:07:34;7.20;;;4.33;;
24617;SDS011;12762;51.730;5.356;2023-04-01T00:10:01;7.63;;;4.20;;
24617;SDS011;12762;51.730;5.356;2023-04-01T00:12:27;10.53;;;4.23;;
24617;SDS011;12762;51.730;5.356;2023-04-01T00:14:54;7.33;;;4.50;;
24617;SDS011;12762;51.730;5.356;2023-04-01T00:17:21;9.40;;;4.67;;
24617;SDS011;12762;51.730;5.356;2023-04-01T00:19:51;8.17;;;4.13;;
24617;SDS011;12762;51.730;5.356;2023-04-01T00:22:20;9.17;;;4.67;;
24617;SDS011;12762;51.730;5.356;2023-04-01T00:24:47;8.87;;;4.33;;
24617;SDS011;12762;51.730;5.356;2023-04-01T00:27:14;6.77;;;4.43;;
24617;SDS011;12762;51.730;5.356;2023-04-01T00:29:45;8.33;;;4.80;;
24617;SDS011;12762;51.730;5.356;2023-04-01T00:32:14;7.70;;;4.50;;
24617;SDS011;12762;51.730;5.356;2023-04-01T00:34:41;7.43;;;4.43;;
24617;SDS011;12762;51.730;5.356;2023-04-01T00:37:08;6.60;;;4.57;;
24617;SDS011;12762;51.730;5.356;2023-04-01T00:39:35;8.03;;;5.17;;
24617;SDS011;12762;51.730;5.356;2023-04-01T00:42:02;9.27;;;4.53;;
24617;SDS011;12762;51.730;5.356;2023-04-01T00:44:31;6.93;;;4.17;;
24617;SDS011;12762;51.730;5.356;2023-04-01T00:47:00;7.10;;;4.10;;
24617;SDS011;12762;51.730;5.356;2023-04-01T00:49:32;6.70;;;4.53;;
24617;SDS011;12762;51.730;5.356;2023-04-01T00:52:03;6.47;;;4.43;;
24617;SDS011;12762;51.730;5.356;2023-04-01T00:54:33;9.37;;;4.80;;
24617;SDS011;12762;51.730;5.356;2023-04-01T00:57:03;6.97;;;4.43;;
24617;SDS011;12762;51.730;5.356;2023-04-01T00:59:42;7.87;;;4.33;;
24617;SDS011;12762;51.730;5.356;2023-04-01T01:02:14;6.10;;;4.17;;
24617;SDS011;12762;51.730;5.356;2023-04-01T01:04:43;9.70;;;4.00;;
24617;SDS011;12762;51.730;5.356;2023-04-01T01:10:20;6.07;;;3.33;;
24617;SDS011;12762;51.730;5.356;2023-04-01T01:12:53;4.63;;;3.20;;
24617;SDS011;12762;51.730;5.356;2023-04-01T01:15:51;6.50;;;3.20;;
24617;SDS011;12762;51.730;5.356;2023-04-01T01:18:40;5.83;;;2.90;;
24617;SDS011;12762;51.730;5.356;2023-04-01T01:27:33;4.53;;;2.83;;
24617;SDS011;12762;51.730;5.356;2023-04-01T01:33:10;4.97;;;2.43;;
24617;SDS011;12762;51.730;5.356;2023-04-01T01:35:47;3.40;;;1.87;;
24617;SDS011;12762;51.730;5.356;2023-04-01T01:38:18;3.17;;;1.60;;
24617;SDS011;12762;51.730;5.356;2023-04-01T01:40:53;3.87;;;1.17;;
24617;SDS011;12762;51.730;5.356;2023-04-01T01:43:24;3.30;;;1.40;;
24617;SDS011;12762;51.730;5.356;2023-04-01T01:46:03;4.03;;;1.30;;
24617;SDS011;12762;51.730;5.356;2023-04-01T01:48:35;4.23;;;1.40;;
24617;SDS011;12762;51.730;5.356;2023-04-01T01:51:04;2.97;;;1.30;;
24617;SDS011;12762;51.730;5.356;2023-04-01T01:53:32;3.83;;;1.57;;
24617;SDS011;12762;51.730;5.356;2023-04-01T01:56:03;3.13;;;1.07;;
24617;SDS011;12762;51.730;5.356;2023-04-01T01:58:31;4.57;;;1.00;;
24617;SDS011;12762;51.730;5.356;2023-04-01T02:01:07;3.47;;;1.20;;
24617;SDS011;12762;51.730;5.356;2023-04-01T02:03:38;2.40;;;1.10;;
24617;SDS011;12762;51.730;5.356;2023-04-01T02:06:07;2.33;;;1.20;;
24617;SDS011;12762;51.730;5.356;2023-04-01T02:08:41;3.13;;;1.10;;
24617;SDS011;12762;51.730;5.356;2023-04-01T02:11:12;3.27;;;1.00;;
24617;SDS011;12762;51.730;5.356;2023-04-01T02:16:25;3.63;;;1.37;;
24617;SDS011;12762;51.730;5.356;2023-04-01T02:18:53;2.50;;;1.13;;
24617;SDS011;12762;51.730;5.356;2023-04-01T02:21:22;2.80;;;1.40;;
24617;SDS011;12762;51.730;5.356;2023-04-01T02:23:51;3.47;;;1.37;;
24617;SDS011;12762;51.730;5.356;2023-04-01T02:26:20;3.77;;;1.43;;
24617;SDS011;12762;51.730;5.356;2023-04-01T02:28:48;4.43;;;1.50;;
24617;SDS011;12762;51.730;5.356;2023-04-01T02:31:16;3.40;;;1.40;;
24617;SDS011;12762;51.730;5.356;2023-04-01T02:33:44;3.97;;;1.80;;
24617;SDS011;12762;51.730;5.356;2023-04-01T02:36:12;3.27;;;1.80;;
24617;SDS011;12762;51.730;5.356;2023-04-01T02:38:41;6.33;;;2.17;;
24617;SDS011;12762;51.730;5.356;2023-04-01T02:41:10;3.77;;;1.53;;
24617;SDS011;12762;51.730;5.356;2023-04-01T02:43:38;5.77;;;1.93;;
24617;SDS011;12762;51.730;5.356;2023-04-01T02:46:05;4.63;;;1.90;;
24617;SDS011;12762;51.730;5.356;2023-04-01T02:48:32;5.33;;;2.07;;
24617;SDS011;12762;51.730;5.356;2023-04-01T02:50:58;5.40;;;1.80;;
24617;SDS011;12762;51.730;5.356;2023-04-01T02:53:25;5.47;;;1.87;;
24617;SDS011;12762;51.730;5.356;2023-04-01T02:55:52;5.17;;;2.27;;
24617;SDS011;12762;51.730;5.356;2023-04-01T02:58:19;5.90;;;2.30;;
24617;SDS011;12762;51.730;5.356;2023-04-01T03:00:46;5.80;;;2.00;;
24617;SDS011;12762;51.730;5.356;2023-04-01T03:03:13;5.87;;;1.90;;
24617;SDS011;12762;51.730;5.356;2023-04-01T03:05:40;4.77;;;2.00;;
24617;SDS011;12762;51.730;5.356;2023-04-01T03:08:07;6.17;;;2.03;;
24617;SDS011;12762;51.730;5.356;2023-04-01T03:10:34;3.57;;;1.80;;
24617;SDS011;12762;51.730;5.356;2023-04-01T03:13:06;5.77;;;1.80;;
24617;SDS011;12762;51.730;5.356;2023-04-01T03:15:33;5.43;;;1.80;;
24617;SDS011;12762;51.730;5.356;2023-04-01T03:18:00;4.90;;;2.13;;
24617;SDS011;12762;51.730;5.356;2023-04-01T03:20:29;4.47;;;2.00;;
24617;SDS011;12762;51.730;5.356;2023-04-01T03:22:56;4.87;;;1.80;;
24617;SDS011;12762;51.730;5.356;2023-04-01T03:25:23;3.17;;;2.00;;
24617;SDS011;12762;51.730;5.356;2023-04-01T03:27:50;5.17;;;2.37;;
24617;SDS011;12762;51.730;5.356;2023-04-01T03:30:16;7.53;;;2.63;;
24617;SDS011;12762;51.730;5.356;2023-04-01T03:32:43;6.67;;;3.50;;
24617;SDS011;12762;51.730;5.356;2023-04-01T03:35:10;7.60;;;3.63;;
24617;SDS011;12762;51.730;5.356;2023-04-01T03:37:37;7.37;;;3.20;;
24617;SDS011;12762;51.730;5.356;2023-04-01T03:40:04;6.00;;;3.57;;
24617;SDS011;12762;51.730;5.356;2023-04-01T03:42:31;8.50;;;3.80;;
24617;SDS011;12762;51.730;5.356;2023-04-01T03:44:58;5.77;;;3.87;;
24617;SDS011;12762;51.730;5.356;2023-04-01T03:47:25;6.20;;;3.87;;
24617;SDS011;12762;51.730;5.356;2023-04-01T03:49:52;6.70;;;3.97;;
24617;SDS011;12762;51.730;5.356;2023-04-01T03:52:19;8.67;;;3.73;;
24617;SDS011;12762;51.730;5.356;2023-04-01T03:54:46;7.93;;;3.90;;
24617;SDS011;12762;51.730;5.356;2023-04-01T03:57:13;7.40;;;3.47;;
24617;SDS011;12762;51.730;5.356;2023-04-01T03:59:40;7.13;;;3.90;;
24617;SDS011;12762;51.730;5.356;2023-04-01T04:02:07;9.73;;;4.13;;
24617;SDS011;12762;51.730;5.356;2023-04-01T04:04:34;7.70;;;3.97;;
24617;SDS011;12762;51.730;5.356;2023-04-01T04:07:00;9.60;;;3.67;;
24617;SDS011;12762;51.730;5.356;2023-04-01T04:09:31;6.07;;;2.93;;
24617;SDS011;12762;51.730;5.356;2023-04-01T04:11:58;5.80;;;3.47;;
24617;SDS011;12762;51.730;5.356;2023-04-01T04:14:25;8.13;;;3.40;;
24617;SDS011;12762;51.730;5.356;2023-04-01T04:16:52;7.77;;;3.30;;
24617;SDS011;12762;51.730;5.356;2023-04-01T04:19:19;6.37;;;3.00;;
24617;SDS011;12762;51.730;5.356;2023-04-01T04:21:46;6.10;;;3.10;;
24617;SDS011;12762;51.730;5.356;2023-04-01T04:24:13;6.83;;;2.90;;
24617;SDS011;12762;51.730;5.356;2023-04-01T04:26:39;7.97;;;3.77;;
24617;SDS011;12762;51.730;5.356;2023-04-01T04:29:06;8.13;;;3.60;;
24617;SDS011;12762;51.730;5.356;2023-04-01T04:31:33;9.50;;;3.60;;
24617;SDS011;12762;51.730;5.356;2023-04-01T04:34:00;5.30;;;3.30;;
24617;SDS011;12762;51.730;5.356;2023-04-01T04:36:27;8.60;;;4.20;;
24617;SDS011;12762;51.730;5.356;2023-04-01T04:38:54;7.97;;;3.90;;
24617;SDS011;12762;51.730;5.356;2023-04-01T04:41:21;6.97;;;4.20;;
24617;SDS011;12762;51.730;5.356;2023-04-01T04:43:50;9.77;;;4.53;;
24617;SDS011;12762;51.730;5.356;2023-04-01T04:46:21;8.33;;;4.87;;
24617;SDS011;12762;51.730;5.356;2023-04-01T04:48:48;11.03;;;5.97;;
24617;SDS011;12762;51.730;5.356;2023-04-01T04:51:16;10.53;;;6.30;;
24617;SDS011;12762;51.730;5.356;2023-04-01T04:53:47;10.47;;;5.60;;
24617;SDS011;12762;51.730;5.356;2023-04-01T04:56:21;12.90;;;6.80;;
24617;SDS011;12762;51.730;5.356;2023-04-01T04:58:48;12.13;;;6.53;;
24617;SDS011;12762;51.730;5.356;2023-04-01T05:01:16;10.93;;;6.30;;
24617;SDS011;12762;51.730;5.356;2023-04-01T05:03:43;10.43;;;6.07;;
24617;SDS011;12762;51.730;5.356;2023-04-01T05:06:14;11.33;;;6.87;;
24617;SDS011;12762;51.730;5.356;2023-04-01T05:08:42;11.23;;;6.93;;
24617;SDS011;12762;51.730;5.356;2023-04-01T05:11:14;12.33;;;7.20;;
24617;SDS011;12762;51.730;5.356;2023-04-01T05:13:42;12.40;;;7.23;;
24617;SDS011;12762;51.730;5.356;2023-04-01T05:16:11;14.43;;;7.10;;
24617;SDS011;12762;51.730;5.356;2023-04-01T05:18:42;12.73;;;7.23;;
24617;SDS011;12762;51.730;5.356;2023-04-01T05:21:10;14.43;;;7.83;;
24617;SDS011;12762;51.730;5.356;2023-04-01T05:23:38;13.83;;;7.77;;
24617;SDS011;12762;51.730;5.356;2023-04-01T05:26:06;15.40;;;8.67;;
24617;SDS011;12762;51.730;5.356;2023-04-01T05:28:35;15.40;;;9.57;;
24617;SDS011;12762;51.730;5.356;2023-04-01T05:31:02;19.43;;;9.83;;
24617;SDS011;12762;51.730;5.356;2023-04-01T05:33:31;17.37;;;9.57;;
24617;SDS011;12762;51.730;5.356;2023-04-01T05:36:05;19.30;;;10.60;;
24617;SDS011;12762;51.730;5.356;2023-04-01T05:38:36;21.00;;;10.90;;
24617;SDS011;12762;51.730;5.356;2023-04-01T05:41:04;16.53;;;9.90;;
24617;SDS011;12762;51.730;5.356;2023-04-01T05:43:38;22.07;;;10.90;;
24617;SDS011;12762;51.730;5.356;2023-04-01T05:46:05;21.60;;;10.87;;
24617;SDS011;12762;51.730;5.356;2023-04-01T05:48:33;23.03;;;10.77;;
24617;SDS011;12762;51.730;5.356;2023-04-01T05:51:06;22.03;;;10.80;;
24617;SDS011;12762;51.730;5.356;2023-04-01T05:53:38;26.70;;;11.10;;
24617;SDS011;12762;51.730;5.356;2023-04-01T05:56:05;24.80;;;10.47;;
24617;SDS011;12762;51.730;5.356;2023-04-01T05:58:32;23.43;;;10.63;;
24617;SDS011;12762;51.730;5.356;2023-04-01T06:01:03;25.90;;;10.97;;
24617;SDS011;12762;51.730;5.356;2023-04-01T06:03:37;21.07;;;10.50;;
24617;SDS011;12762;51.730;5.356;2023-04-01T06:06:05;21.57;;;9.20;;
24617;SDS011;12762;51.730;5.356;2023-04-01T06:08:37;23.57;;;10.10;;
24617;SDS011;12762;51.730;5.356;2023-04-01T06:14:11;21.87;;;9.97;;
24617;SDS011;12762;51.730;5.356;2023-04-01T06:16:49;24.03;;;10.37;;
24617;SDS011;12762;51.730;5.356;2023-04-01T06:19:29;23.80;;;10.57;;
24617;SDS011;12762;51.730;5.356;2023-04-01T06:30:43;24.10;;;10.13;;
24617;SDS011;12762;51.730;5.356;2023-04-01T06:39:00;25.80;;;10.33;;
24617;SDS011;12762;51.730;5.356;2023-04-01T06:41:56;26.90;;;11.23;;
24617;SDS011;12762;51.730;5.356;2023-04-01T06:52:40;24.47;;;11.40;;
24617;SDS011;12762;51.730;5.356;2023-04-01T06:55:26;27.80;;;12.00;;
24617;SDS011;12762;51.730;5.356;2023-04-01T06:58:04;23.73;;;12.77;;
24617;SDS011;12762;51.730;5.356;2023-04-01T07:00:49;27.63;;;12.57;;
24617;SDS011;12762;51.730;5.356;2023-04-01T07:03:44;23.17;;;11.00;;
24617;SDS011;12762;51.730;5.356;2023-04-01T07:09:26;22.13;;;10.50;;
24617;SDS011;12762;51.730;5.356;2023-04-01T07:12:02;20.77;;;10.40;;
24617;SDS011;12762;51.730;5.356;2023-04-01T07:14:39;21.43;;;9.93;;
24617;SDS011;12762;51.730;5.356;2023-04-01T07:17:25;19.83;;;9.40;;
24617;SDS011;12762;51.730;5.356;2023-04-01T07:20:11;18.30;;;9.53;;
24617;SDS011;12762;51.730;5.356;2023-04-01T07:22:46;17.50;;;8.53;;
24617;SDS011;12762;51.730;5.356;2023-04-01T07:25:17;18.40;;;8.80;;
24617;SDS011;12762;51.730;5.356;2023-04-01T07:28:04;18.53;;;8.90;;
24617;SDS011;12762;51.730;5.356;2023-04-01T07:30:58;17.67;;;8.57;;
24617;SDS011;12762;51.730;5.356;2023-04-01T07:33:39;18.80;;;9.13;;
24617;SDS011;12762;51.730;5.356;2023-04-01T07:36:13;20.57;;;8.27;;
24617;SDS011;12762;51.730;5.356;2023-04-01T07:44:31;18.93;;;8.97;;
24617;SDS011;12762;51.730;5.356;2023-04-01T07:52:27;21.93;;;8.57;;
24617;SDS011;12762;51.730;5.356;2023-04-01T07:55:26;15.80;;;7.90;;
24617;SDS011;12762;51.730;5.356;2023-04-01T08:01:04;20.67;;;9.80;;
24617;SDS011;12762;51.730;5.356;2023-04-01T08:06:28;19.73;;;10.00;;
24617;SDS011;12762;51.730;5.356;2023-04-01T08:15:17;22.17;;;10.93;;
24617;SDS011;12762;51.730;5.356;2023-04-01T08:18:19;25.30;;;11.67;;
24617;SDS011;12762;51.730;5.356;2023-04-01T08:21:10;25.57;;;11.73;;
24617;SDS011;12762;51.730;5.356;2023-04-01T08:24:00;25.53;;;12.53;;
24617;SDS011;12762;51.730;5.356;2023-04-01T08:26:55;25.33;;;12.37;;
24617;SDS011;12762;51.730;5.356;2023-04-01T08:29:26;23.77;;;11.33;;
24617;SDS011;12762;51.730;5.356;2023-04-01T08:32:00;26.00;;;12.50;;
24617;SDS011;12762;51.730;5.356;2023-04-01T08:34:36;24.37;;;11.97;;
24617;SDS011;12762;51.730;5.356;2023-04-01T08:37:07;25.77;;;11.87;;
24617;SDS011;12762;51.730;5.356;2023-04-01T08:47:56;25.07;;;11.90;;
24617;SDS011;12762;51.730;5.356;2023-04-01T08:53:30;23.87;;;10.77;;
24617;SDS011;12762;51.730;5.356;2023-04-01T08:56:21;23.13;;;10.73;;
24617;SDS011;12762;51.730;5.356;2023-04-01T09:01:49;25.67;;;11.20;;
24617;SDS011;12762;51.730;5.356;2023-04-01T09:10:28;22.00;;;9.83;;
24617;SDS011;12762;51.730;5.356;2023-04-01T09:16:12;20.83;;;10.20;;
24617;SDS011;12762;51.730;5.356;2023-04-01T09:19:16;19.17;;;9.20;;
24617;SDS011;12762;51.730;5.356;2023-04-01T09:38:20;13.77;;;7.50;;
24617;SDS011;12762;51.730;5.356;2023-04-01T09:49:35;15.00;;;7.97;;
24617;SDS011;12762;51.730;5.356;2023-04-01T10:06:34;15.80;;;7.67;;
24617;SDS011;12762;51.730;5.356;2023-04-01T10:09:31;15.17;;;7.47;;
24617;SDS011;12762;51.730;5.356;2023-04-01T10:12:31;18.87;;;8.13;;
24617;SDS011;12762;51.730;5.356;2023-04-01T10:15:59;12.50;;;7.27;;
24617;SDS011;12762;51.730;5.356;2023-04-01T10:18:34;12.03;;;6.80;;
24617;SDS011;12762;51.730;5.356;2023-04-01T10:21:22;11.60;;;6.43;;
24617;SDS011;12762;51.730;5.356;2023-04-01T10:26:44;12.47;;;5.67;;
24617;SDS011;12762;51.730;5.356;2023-04-01T10:32:52;10.67;;;5.00;;
24617;SDS011;12762;51.730;5.356;2023-04-01T10:35:38;11.03;;;5.83;;
24617;SDS011;12762;51.730;5.356;2023-04-01T10:58:17;14.03;;;7.70;;
24617;SDS011;12762;51.730;5.356;2023-04-01T11:01:01;15.03;;;7.43;;
24617;SDS011;12762;51.730;5.356;2023-04-01T11:12:07;14.80;;;6.50;;
24617;SDS011;12762;51.730;5.356;2023-04-01T11:23:48;15.37;;;6.77;;
24617;SDS011;12762;51.730;5.356;2023-04-01T11:32:19;11.73;;;6.10;;
24617;SDS011;12762;51.730;5.356;2023-04-01T11:43:12;8.33;;;4.30;;
24617;SDS011;12762;51.730;5.356;2023-04-01T11:46:10;9.13;;;4.60;;
24617;SDS011;12762;51.730;5.356;2023-04-01T11:51:51;8.63;;;4.03;;
24617;SDS011;12762;51.730;5.356;2023-04-01T12:05:27;8.37;;;4.37;;
24617;SDS011;12762;51.730;5.356;2023-04-01T12:16:04;7.40;;;4.40;;
24617;SDS011;12762;51.730;5.356;2023-04-01T12:27:52;7.57;;;4.27;;
24617;SDS011;12762;51.730;5.356;2023-04-01T12:39:17;9.43;;;5.30;;
24617;SDS011;12762;51.730;5.356;2023-04-01T12:42:11;7.90;;;4.60;;
24617;SDS011;12762;51.730;5.356;2023-04-01T13:04:39;8.67;;;4.53;;
24617;SDS011;12762;51.730;5.356;2023-04-01T13:13:40;8.87;;;4.73;;
24617;SDS011;12762;51.730;5.356;2023-04-01T13:19:06;9.43;;;4.80;;
24617;SDS011;12762;51.730;5.356;2023-04-01T13:29:41;12.47;;;6.43;;
24617;SDS011;12762;51.730;5.356;2023-04-01T13:32:22;10.50;;;5.83;;
24617;SDS011;12762;51.730;5.356;2023-04-01T13:35:23;11.83;;;6.30;;
24617;SDS011;12762;51.730;5.356;2023-04-01T13:40:33;11.43;;;6.50;;
24617;SDS011;12762;51.730;5.356;2023-04-01T13:43:31;12.50;;;6.40;;
24617;SDS011;12762;51.730;5.356;2023-04-01T13:54:22;11.40;;;6.30;;
24617;SDS011;12762;51.730;5.356;2023-04-01T14:03:32;8.57;;;5.93;;
24617;SDS011;12762;51.730;5.356;2023-04-01T14:23:37;12.33;;;6.87;;
24617;SDS011;12762;51.730;5.356;2023-04-01T14:26:20;12.57;;;6.50;;
24617;SDS011;12762;51.730;5.356;2023-04-01T14:40:33;13.07;;;6.90;;
24617;SDS011;12762;51.730;5.356;2023-04-01T14:43:18;13.57;;;7.50;;
24617;SDS011;12762;51.730;5.356;2023-04-01T14:48:58;15.43;;;8.07;;
24617;SDS011;12762;51.730;5.356;2023-04-01T14:56:44;13.20;;;6.90;;
24617;SDS011;12762;51.730;5.356;2023-04-01T15:02:01;13.13;;;6.77;;
24617;SDS011;12762;51.730;5.356;2023-04-01T15:07:18;13.17;;;7.23;;
24617;SDS011;12762;51.730;5.356;2023-04-01T15:09:58;11.23;;;6.83;;
24617;SDS011;12762;51.730;5.356;2023-04-01T15:12:47;10.17;;;5.93;;
24617;SDS011;12762;51.730;5.356;2023-04-01T15:15:31;10.73;;;6.27;;
24617;SDS011;12762;51.730;5.356;2023-04-01T15:21:16;11.97;;;6.53;;
24617;SDS011;12762;51.730;5.356;2023-04-01T15:35:34;9.33;;;5.43;;
24617;SDS011;12762;51.730;5.356;2023-04-01T15:38:24;11.20;;;5.63;;
24617;SDS011;12762;51.730;5.356;2023-04-01T15:41:08;8.03;;;5.17;;
24617;SDS011;12762;51.730;5.356;2023-04-01T15:43:45;10.23;;;5.37;;
24617;SDS011;12762;51.730;5.356;2023-04-01T15:49:10;10.70;;;5.23;;
24617;SDS011;12762;51.730;5.356;2023-04-01T16:00:44;17.43;;;9.27;;
24617;SDS011;12762;51.730;5.356;2023-04-01T16:03:39;9.57;;;4.03;;
24617;SDS011;12762;51.730;5.356;2023-04-01T16:06:25;6.80;;;3.57;;
24617;SDS011;12762;51.730;5.356;2023-04-01T16:17:36;5.43;;;3.47;;
24617;SDS011;12762;51.730;5.356;2023-04-01T16:20:42;4.80;;;3.17;;
24617;SDS011;12762;51.730;5.356;2023-04-01T16:26:27;6.13;;;3.60;;
24617;SDS011;12762;51.730;5.356;2023-04-01T16:29:20;5.60;;;3.70;;
24617;SDS011;12762;51.730;5.356;2023-04-01T16:35:12;6.40;;;3.67;;
24617;SDS011;12762;51.730;5.356;2023-04-01T16:37:54;5.67;;;3.73;;
24617;SDS011;12762;51.730;5.356;2023-04-01T16:43:39;6.00;;;4.00;;
24617;SDS011;12762;51.730;5.356;2023-04-01T16:46:19;6.43;;;3.90;;
24617;SDS011;12762;51.730;5.356;2023-04-01T16:59:38;5.67;;;3.50;;
24617;SDS011;12762;51.730;5.356;2023-04-01T17:02:25;6.90;;;4.43;;
24617;SDS011;12762;51.730;5.356;2023-04-01T17:05:08;5.30;;;3.63;;
24617;SDS011;12762;51.730;5.356;2023-04-01T17:18:47;5.60;;;3.60;;
24617;SDS011;12762;51.730;5.356;2023-04-01T17:21:44;5.13;;;2.97;;
24617;SDS011;12762;51.730;5.356;2023-04-01T17:35:35;4.53;;;2.80;;
24617;SDS011;12762;51.730;5.356;2023-04-01T17:41:19;5.07;;;3.43;;
24617;SDS011;12762;51.730;5.356;2023-04-01T17:44:18;5.40;;;3.00;;
24617;SDS011;12762;51.730;5.356;2023-04-01T17:52:43;5.60;;;3.50;;
24617;SDS011;12762;51.730;5.356;2023-04-01T17:58:41;5.20;;;3.23;;
24617;SDS011;12762;51.730;5.356;2023-04-01T18:22:55;7.47;;;4.10;;
24617;SDS011;12762;51.730;5.356;2023-04-01T18:25:47;5.87;;;3.77;;
24617;SDS011;12762;51.730;5.356;2023-04-01T18:28:25;6.03;;;3.80;;
24617;SDS011;12762;51.730;5.356;2023-04-01T18:33:36;5.80;;;3.93;;
24617;SDS011;12762;51.730;5.356;2023-04-01T18:38:49;7.00;;;4.60;;
24617;SDS011;12762;51.730;5.356;2023-04-01T18:41:40;7.10;;;4.50;;
24617;SDS011;12762;51.730;5.356;2023-04-01T18:44:30;6.93;;;4.73;;
24617;SDS011;12762;51.730;5.356;2023-04-01T18:56:09;5.73;;;3.73;;
24617;SDS011;12762;51.730;5.356;2023-04-01T19:01:59;6.57;;;4.43;;
24617;SDS011;12762;51.730;5.356;2023-04-01T19:15:44;6.27;;;4.30;;
24617;SDS011;12762;51.730;5.356;2023-04-01T19:18:41;6.67;;;4.17;;
24617;SDS011;12762;51.730;5.356;2023-04-01T19:26:48;6.47;;;3.87;;
24617;SDS011;12762;51.730;5.356;2023-04-01T19:29:40;5.90;;;4.00;;
24617;SDS011;12762;51.730;5.356;2023-04-01T19:35:11;6.33;;;4.20;;
24617;SDS011;12762;51.730;5.356;2023-04-01T19:37:45;6.87;;;4.87;;
24617;SDS011;12762;51.730;5.356;2023-04-01T19:40:33;7.97;;;4.53;;
24617;SDS011;12762;51.730;5.356;2023-04-01T19:46:01;7.70;;;4.70;;
24617;SDS011;12762;51.730;5.356;2023-04-01T19:59:34;7.50;;;5.20;;
24617;SDS011;12762;51.730;5.356;2023-04-01T20:05:25;8.70;;;4.90;;
24617;SDS011;12762;51.730;5.356;2023-04-01T20:08:58;6.83;;;4.77;;
24617;SDS011;12762;51.730;5.356;2023-04-01T20:17:21;7.13;;;5.13;;
24617;SDS011;12762;51.730;5.356;2023-04-01T20:19:39;7.83;;;5.13;;
24617;SDS011;12762;51.730;5.356;2023-04-01T20:22:22;7.43;;;5.27;;
24617;SDS011;12762;51.730;5.356;2023-04-01T20:24:51;7.83;;;5.33;;
24617;SDS011;12762;51.730;5.356;2023-04-01T20:27:21;7.80;;;5.00;;
24617;SDS011;12762;51.730;5.356;2023-04-01T20:30:03;8.60;;;5.27;;
24617;SDS011;12762;51.730;5.356;2023-04-01T20:38:52;6.80;;;4.87;;
24617;SDS011;12762;51.730;5.356;2023-04-01T20:41:40;6.90;;;4.47;;
24617;SDS011;12762;51.730;5.356;2023-04-01T20:47:39;7.60;;;4.17;;
24617;SDS011;12762;51.730;5.356;2023-04-01T20:50:24;6.93;;;4.40;;
24617;SDS011;12762;51.730;5.356;2023-04-01T21:06:10;6.87;;;5.07;;
24617;SDS011;12762;51.730;5.356;2023-04-01T21:09:05;6.90;;;4.67;;
24617;SDS011;12762;51.730;5.356;2023-04-01T21:17:17;7.73;;;4.90;;
24617;SDS011;12762;51.730;5.356;2023-04-01T21:23:16;8.70;;;5.73;;
24617;SDS011;12762;51.730;5.356;2023-04-01T21:28:51;11.63;;;7.20;;
24617;SDS011;12762;51.730;5.356;2023-04-01T21:34:10;11.13;;;7.73;;
24617;SDS011;12762;51.730;5.356;2023-04-01T21:37:01;11.37;;;7.93;;
24617;SDS011;12762;51.730;5.356;2023-04-01T21:42:44;11.60;;;7.90;;
24617;SDS011;12762;51.730;5.356;2023-04-01T21:45:27;11.23;;;7.33;;
24617;SDS011;12762;51.730;5.356;2023-04-01T21:48:33;12.07;;;7.70;;
24617;SDS011;12762;51.730;5.356;2023-04-01T22:12:19;14.30;;;8.53;;
24617;SDS011;12762;51.730;5.356;2023-04-01T22:17:16;14.13;;;9.20;;
24617;SDS011;12762;51.730;5.356;2023-04-01T22:19:59;14.50;;;9.73;;
24617;SDS011;12762;51.730;5.356;2023-04-01T22:25:20;16.50;;;9.43;;
24617;SDS011;12762;51.730;5.356;2023-04-01T22:28:40;12.67;;;8.27;;
24617;SDS011;12762;51.730;5.356;2023-04-01T22:30:51;12.77;;;8.37;;
24617;SDS011;12762;51.730;5.356;2023-04-01T22:33:32;13.13;;;8.73;;
24617;SDS011;12762;51.730;5.356;2023-04-01T22:39:16;11.93;;;8.30;;
24617;SDS011;12762;51.730;5.356;2023-04-01T22:42:00;11.57;;;8.13;;
24617;SDS011;12762;51.730;5.356;2023-04-01T22:50:13;10.93;;;6.83;;
24617;SDS011;12762;51.730;5.356;2023-04-01T22:52:47;10.57;;;7.60;;
24617;SDS011;12762;51.730;5.356;2023-04-01T22:57:57;12.03;;;8.03;;
24617;SDS011;12762;51.730;5.356;2023-04-01T23:00:29;10.40;;;7.47;;
24617;SDS011;12762;51.730;5.356;2023-04-01T23:05:52;10.63;;;7.60;;
24617;SDS011;12762;51.730;5.356;2023-04-01T23:08:39;11.17;;;7.47;;
24617;SDS011;12762;51.730;5.356;2023-04-01T23:16:24;11.07;;;7.03;;
24617;SDS011;12762;51.730;5.356;2023-04-01T23:29:22;13.00;;;8.03;;
24617;SDS011;12762;51.730;5.356;2023-04-01T23:32:13;10.83;;;7.47;;
24617;SDS011;12762;51.730;5.356;2023-04-01T23:34:52;10.97;;;7.67;;
24617;SDS011;12762;51.730;5.356;2023-04-01T23:37:22;11.43;;;7.00;;
24617;SDS011;12762;51.730;5.356;2023-04-01T23:39:50;9.70;;;6.43;;
24617;SDS011;12762;51.730;5.356;2023-04-01T23:44:53;9.37;;;6.47;;
24617;SDS011;12762;51.730;5.356;2023-04-01T23:47:35;8.67;;;6.00;;
24617;SDS011;12762;51.730;5.356;2023-04-01T23:50:22;9.53;;;6.50;;
24617;SDS011;12762;51.730;5.356;2023-04-01T23:53:00;8.93;;;6.43;;
24617;SDS011;12762;51.730;5.356;2023-04-01T23:55:31;10.77;;;6.70;;
